createdAt,value
2023-04-07T13:11:46.839Z,15.53
2023-04-07T13:14:14.584Z,16.23
2023-04-07T13:16:42.667Z,16.73
2023-04-07T13:19:10.341Z,17.20
2023-04-07T13:24:08.484Z,18.05
2023-04-07T13:26:36.146Z,18.21
2023-04-07T13:29:05.114Z,18.23
2023-04-07T13:31:32.664Z,18.52
2023-04-07T13:34:00.415Z,19.04
2023-04-07T13:36:28.442Z,19.37
2023-04-07T13:38:56.752Z,20.21
2023-04-07T13:41:24.758Z,20.52
2023-04-07T13:43:52.361Z,20.68
2023-04-07T13:46:28.579Z,20.78
2023-04-07T13:48:56.982Z,20.76
2023-04-07T13:51:24.681Z,20.68
2023-04-07T13:53:52.430Z,21.13
2023-04-07T13:56:20.156Z,21.00
2023-04-07T13:58:47.976Z,21.35
2023-04-07T14:01:16.096Z,20.91
2023-04-07T14:03:45.277Z,20.99
2023-04-07T14:06:12.992Z,20.80
2023-04-07T14:08:42.005Z,21.32
2023-04-07T14:11:09.619Z,20.90
2023-04-07T14:13:38.197Z,20.35
2023-04-07T14:16:06.375Z,19.48
2023-04-07T14:18:34.019Z,19.86
2023-04-07T14:21:03.375Z,19.66
2023-04-07T14:23:37.296Z,20.58
2023-04-07T14:26:05.999Z,20.89
2023-04-07T14:28:33.612Z,20.08
2023-04-07T14:31:01.357Z,19.97
2023-04-07T14:33:29.002Z,19.18
2023-04-07T14:35:57.298Z,18.09
2023-04-07T14:38:26.238Z,17.94
2023-04-07T14:40:54.017Z,17.44
2023-04-07T14:43:21.618Z,17.59
2023-04-07T14:45:56.421Z,17.71
2023-04-07T14:48:24.325Z,17.14
2023-04-07T14:51:06.064Z,16.24
2023-04-07T14:53:37.743Z,15.75
2023-04-07T14:56:05.738Z,15.82
2023-04-07T14:58:33.339Z,15.68
2023-04-07T15:01:01.139Z,15.41
2023-04-07T15:03:29.556Z,14.80
2023-04-07T15:05:58.031Z,14.51
2023-04-07T15:08:25.663Z,13.87
2023-04-07T15:10:54.843Z,13.48
2023-04-07T15:13:22.444Z,13.10
2023-04-07T15:15:50.093Z,12.77
2023-04-07T15:18:17.826Z,12.71
2023-04-07T15:20:45.447Z,12.61
2023-04-07T15:23:14.703Z,12.47
2023-04-07T15:25:42.364Z,12.41
2023-04-07T15:28:11.343Z,12.52
2023-04-07T15:30:39.161Z,12.69
2023-04-07T15:33:06.799Z,12.69
2023-04-07T15:35:34.474Z,12.82
2023-04-07T15:38:02.355Z,12.95
2023-04-07T15:40:29.911Z,13.12
2023-04-07T15:42:57.790Z,13.17
2023-04-07T15:45:26.868Z,13.25
2023-04-07T15:47:55.572Z,12.79
2023-04-07T15:50:23.244Z,12.90
2023-04-07T15:52:50.876Z,12.86
2023-04-07T15:55:18.473Z,12.88
2023-04-07T15:57:46.482Z,12.80
2023-04-07T16:00:14.958Z,12.70
2023-04-07T16:02:44.612Z,12.65
2023-04-07T16:05:12.568Z,12.41
2023-04-07T16:07:40.174Z,12.28
2023-04-07T16:10:09.177Z,12.10
2023-04-07T16:12:38.102Z,11.99
2023-04-07T16:15:06.810Z,11.78
2023-04-07T16:17:34.611Z,11.57
2023-04-07T16:20:04.517Z,11.38
2023-04-07T16:22:32.610Z,11.25
2023-04-07T16:25:00.468Z,11.06
2023-04-07T16:27:28.480Z,10.90
2023-04-07T16:29:56.109Z,10.80
2023-04-07T16:32:23.718Z,10.70
2023-04-07T16:34:51.504Z,10.60
2023-04-07T16:37:20.450Z,10.53
2023-04-07T16:39:48.065Z,10.44
2023-04-07T16:42:15.771Z,10.41
2023-04-07T16:44:43.363Z,10.40
2023-04-07T16:47:10.985Z,10.35
2023-04-07T16:49:39.193Z,10.23
2023-04-07T16:52:06.756Z,10.24
2023-04-07T16:54:36.600Z,10.19
2023-04-07T16:57:04.362Z,10.19
2023-04-07T16:59:32.760Z,10.17
2023-04-07T17:02:00.632Z,10.08
2023-04-07T17:04:28.593Z,9.97
2023-04-07T17:06:56.429Z,9.91
2023-04-07T17:09:24.000Z,9.83
2023-04-07T17:11:52.969Z,9.68
2023-04-07T17:14:21.697Z,9.61
2023-04-07T17:16:49.521Z,9.49
2023-04-07T17:19:17.186Z,9.34
2023-04-07T17:21:45.050Z,9.21
2023-04-07T17:24:15.655Z,9.20
2023-04-07T17:26:43.405Z,9.05
2023-04-07T17:29:12.413Z,9.02
2023-04-07T17:31:40.085Z,8.90
2023-04-07T17:34:07.824Z,8.76
2023-04-07T17:36:37.430Z,8.61
2023-04-07T17:39:05.495Z,8.33
2023-04-07T17:41:34.387Z,8.11
2023-04-07T17:44:02.299Z,8.03
2023-04-07T17:46:31.786Z,7.91
2023-04-07T17:48:59.607Z,7.85
2023-04-07T17:51:27.536Z,7.74
2023-04-07T17:53:56.588Z,7.67
2023-04-07T17:56:24.545Z,7.53
2023-04-07T17:58:52.121Z,7.38
2023-04-07T18:01:19.892Z,7.30
2023-04-07T18:03:49.728Z,7.22
2023-04-07T18:06:18.202Z,7.15
2023-04-07T18:08:47.334Z,7.07
2023-04-07T18:11:15.042Z,6.83
2023-04-07T18:13:42.875Z,6.55
2023-04-07T18:16:11.917Z,6.38
2023-04-07T18:18:39.669Z,6.16
2023-04-07T18:21:08.823Z,5.97
2023-04-07T18:23:36.535Z,5.87
2023-04-07T18:26:06.791Z,5.76
2023-04-07T18:28:35.306Z,5.59
2023-04-07T18:31:04.776Z,5.38
2023-04-07T18:33:32.986Z,5.28
2023-04-07T18:36:01.758Z,5.19
2023-04-07T18:38:30.768Z,5.12
2023-04-07T18:40:58.482Z,5.01
2023-04-07T18:43:26.524Z,4.96
2023-04-07T18:45:54.226Z,4.87
2023-04-07T18:48:22.427Z,4.76
2023-04-07T18:50:51.521Z,4.68
2023-04-07T18:53:19.092Z,4.68
2023-04-07T18:55:49.026Z,4.68
2023-04-07T18:58:17.033Z,4.66
2023-04-07T19:00:44.946Z,4.66
2023-04-07T19:03:13.485Z,4.70
2023-04-07T19:05:42.021Z,4.70
2023-04-07T19:08:09.975Z,4.58
2023-04-07T19:10:37.554Z,4.45
2023-04-07T19:13:07.162Z,4.13
2023-04-07T19:15:38.526Z,4.20
2023-04-07T19:18:07.853Z,4.13
2023-04-07T19:20:35.590Z,4.08
2023-04-07T19:23:03.325Z,4.02
2023-04-07T19:25:31.254Z,3.94
2023-04-07T19:28:00.382Z,3.91
2023-04-07T19:30:29.315Z,3.90
2023-04-07T19:32:57.834Z,3.84
2023-04-07T19:35:25.791Z,3.81
2023-04-07T19:37:53.750Z,3.76
2023-04-07T19:40:21.351Z,3.70
2023-04-07T19:42:49.504Z,3.64
2023-04-07T19:45:17.124Z,3.60
2023-04-07T19:47:46.117Z,3.72
2023-04-07T19:50:14.404Z,3.67
2023-04-07T19:52:43.547Z,3.80
2023-04-07T19:55:11.110Z,3.83
2023-04-07T19:57:40.297Z,3.73
2023-04-07T20:00:10.022Z,3.69
2023-04-07T20:02:37.883Z,3.56
2023-04-07T20:05:07.612Z,3.56
2023-04-07T20:07:35.256Z,3.56
2023-04-07T20:10:03.906Z,3.55
2023-04-07T20:12:31.651Z,3.57
2023-04-07T20:14:59.702Z,3.57
2023-04-07T20:17:27.455Z,3.61
2023-04-07T20:19:55.624Z,3.65
2023-04-07T20:22:24.909Z,3.78
2023-04-07T20:24:52.538Z,3.86
2023-04-07T20:27:20.105Z,4.02
2023-04-07T20:29:47.667Z,4.09
2023-04-07T20:32:16.159Z,4.12
2023-04-07T20:34:45.875Z,4.23
2023-04-07T20:37:13.649Z,4.41
2023-04-07T20:39:43.103Z,4.45
2023-04-07T20:42:10.996Z,4.40
2023-04-07T20:44:38.558Z,4.47
2023-04-07T20:47:08.815Z,4.48
2023-04-07T20:49:37.028Z,4.49
2023-04-07T20:52:04.769Z,4.49
2023-04-07T20:54:32.754Z,4.46
2023-04-07T20:57:01.721Z,4.40
2023-04-07T20:59:30.198Z,4.48
2023-04-07T21:01:57.943Z,4.44
2023-04-07T21:04:25.823Z,4.42
2023-04-07T21:06:53.618Z,4.44
2023-04-07T21:09:21.398Z,4.41
2023-04-07T21:11:49.104Z,4.37
2023-04-07T21:14:18.024Z,4.34
2023-04-07T21:16:45.772Z,4.23
2023-04-07T21:19:13.566Z,4.20
2023-04-07T21:21:41.352Z,4.18
2023-04-07T21:24:08.998Z,4.14
2023-04-07T21:26:36.639Z,4.15
2023-04-07T21:29:04.229Z,4.14
2023-04-07T21:31:39.277Z,4.12
2023-04-07T21:34:07.083Z,4.12
2023-04-07T21:36:34.760Z,4.04
2023-04-07T21:39:02.392Z,4.16
2023-04-07T21:41:30.000Z,4.14
2023-04-07T21:43:57.663Z,4.14
2023-04-07T21:46:27.082Z,4.15
2023-04-07T21:48:56.806Z,4.16
2023-04-07T21:51:24.562Z,4.14
2023-04-07T21:53:52.294Z,3.97
2023-04-07T21:56:19.998Z,4.13
2023-04-07T21:58:47.913Z,4.12
2023-04-07T22:01:15.659Z,4.12
2023-04-07T22:03:44.445Z,4.10
2023-04-07T22:06:14.192Z,4.12
2023-04-07T22:08:48.839Z,4.17
2023-04-07T22:11:28.465Z,4.18
2023-04-07T22:13:56.114Z,4.20
2023-04-07T22:16:32.385Z,4.20
2023-04-07T22:19:00.609Z,4.20
2023-04-07T22:21:29.720Z,4.09
2023-04-07T22:23:57.363Z,4.24
2023-04-07T22:26:25.030Z,4.27
2023-04-07T22:28:52.900Z,4.26
2023-04-07T22:31:20.500Z,4.26
2023-04-07T22:33:48.101Z,4.25
2023-04-07T22:36:15.665Z,4.25
2023-04-07T22:38:44.971Z,4.23
2023-04-07T22:41:12.571Z,4.25
2023-04-07T22:43:40.208Z,4.24
2023-04-07T22:46:07.829Z,4.23
2023-04-07T22:48:39.593Z,4.08
2023-04-07T22:51:07.568Z,4.18
2023-04-07T22:53:35.258Z,4.17
2023-04-07T22:56:04.211Z,4.19
2023-04-07T22:58:31.860Z,4.18
2023-04-07T23:00:59.486Z,4.18
2023-04-07T23:03:32.775Z,4.14
2023-04-07T23:06:01.494Z,4.16
2023-04-07T23:08:29.569Z,4.13
2023-04-07T23:10:57.237Z,4.12
2023-04-07T23:13:26.992Z,4.13
2023-04-07T23:15:54.687Z,4.15
2023-04-07T23:18:22.286Z,4.14
2023-04-07T23:20:52.880Z,4.09
2023-04-07T23:23:20.477Z,4.03
2023-04-07T23:25:48.024Z,4.04
2023-04-07T23:28:15.610Z,4.06
2023-04-07T23:30:44.689Z,4.01
2023-04-07T23:33:12.476Z,4.00
2023-04-07T23:35:40.402Z,4.02
2023-04-07T23:38:09.061Z,4.03
2023-04-07T23:40:36.678Z,4.04
2023-04-07T23:43:04.297Z,4.01
2023-04-07T23:45:31.902Z,4.01
2023-04-07T23:48:01.029Z,4.01
2023-04-07T23:50:29.079Z,3.98
2023-04-07T23:52:57.344Z,3.98
2023-04-07T23:55:25.431Z,3.97
2023-04-07T23:57:53.021Z,3.95
